Time;durP1;ratioP1;P1;durP2;ratioP2;P2;SDS_P1;SDS_P2;PMS_P1;PMS_P2;Temp;Humidity;BMP_temperature;BMP_pressure;BME280_temperature;BME280_humidity;BME280_pressure;Samples;Min_cycle;Max_cycle;Signal;HPM_P1;HPM_P2
2022/08/16 00:01:07;;;;;;;16.10;13.40;;;20.50;99.90;;;;;;5054703;28;20041;-78
2022/08/16 00:03:33;;;;;;;14.68;13.10;;;20.50;99.90;;;;;;5054522;28;20080;-79
2022/08/16 00:05:59;;;;;;;15.48;13.60;;;20.50;99.90;;;;;;5053315;28;20083;-79
2022/08/16 00:08:24;;;;;;;15.25;13.75;;;20.50;99.90;;;;;;5054634;28;20049;-78
2022/08/16 00:10:51;;;;;;;18.23;13.30;;;20.40;99.90;;;;;;5054592;28;20067;-78
2022/08/16 00:13:17;;;;;;;17.52;14.05;;;20.40;99.90;;;;;;5053186;28;20369;-78
2022/08/16 00:15:46;;;;;;;16.83;13.93;;;20.40;99.90;;;;;;5053154;28;20124;-78
2022/08/16 00:18:15;;;;;;;16.33;14.27;;;20.40;99.90;;;;;;5054508;28;20053;-78
2022/08/16 00:20:43;;;;;;;16.02;14.50;;;20.40;99.90;;;;;;5054197;28;20396;-78
2022/08/16 00:23:09;;;;;;;17.15;14.60;;;20.40;99.90;;;;;;5054208;28;20460;-78
2022/08/16 00:25:36;;;;;;;17.20;14.35;;;20.40;99.90;;;;;;5052816;28;20102;-78
2022/08/16 00:28:02;;;;;;;18.08;14.65;;;20.30;99.90;;;;;;5054336;28;20048;-78
2022/08/16 00:30:28;;;;;;;15.68;14.18;;;20.30;99.90;;;;;;5054126;28;20122;-78
2022/08/16 00:32:56;;;;;;;17.70;15.32;;;20.30;99.90;;;;;;5053992;28;20511;-78
2022/08/16 00:35:28;;;;;;;18.42;16.48;;;20.30;99.90;;;;;;5052789;28;20484;-78
2022/08/16 00:37:56;;;;;;;21.23;17.23;;;20.30;99.90;;;;;;5053116;28;20076;-78
2022/08/16 00:40:32;;;;;;;22.63;18.63;;;20.30;99.90;;;;;;5053974;28;20059;-78
2022/08/16 00:42:57;;;;;;;20.15;17.05;;;20.20;99.90;;;;;;5054047;28;20076;-78
2022/08/16 00:45:30;;;;;;;22.08;18.98;;;20.20;99.90;;;;;;5054027;28;20119;-78
2022/08/16 00:47:56;;;;;;;18.25;16.35;;;20.20;99.90;;;;;;5052854;28;20156;-78
2022/08/16 00:50:26;;;;;;;21.33;18.67;;;20.20;99.90;;;;;;5053917;28;20128;-78
2022/08/16 00:52:52;;;;;;;21.45;18.67;;;20.20;99.90;;;;;;5053908;28;20049;-78
2022/08/16 00:55:21;;;;;;;22.90;18.83;;;20.20;99.90;;;;;;5052878;28;20132;-78
2022/08/16 00:57:49;;;;;;;24.02;20.88;;;20.20;99.90;;;;;;5053435;28;20045;-78
2022/08/16 01:00:16;;;;;;;23.23;18.80;;;20.20;99.90;;;;;;5053706;28;20056;-78
2022/08/16 01:02:42;;;;;;;22.17;19.63;;;20.10;99.90;;;;;;5052426;28;20127;-78
2022/08/16 01:05:08;;;;;;;22.65;18.65;;;20.20;99.90;;;;;;5053648;28;20087;-77
2022/08/16 01:07:35;;;;;;;22.02;19.63;;;20.20;99.90;;;;;;5053697;28;20041;-77
2022/08/16 01:10:01;;;;;;;21.92;19.13;;;20.10;99.90;;;;;;5052577;28;20485;-78
2022/08/16 01:12:26;;;;;;;20.60;18.40;;;20.10;99.90;;;;;;5052190;28;20044;-78
2022/08/16 01:14:56;;;;;;;22.55;18.95;;;20.10;99.90;;;;;;5052473;28;20500;-78
2022/08/16 01:17:22;;;;;;;22.90;19.20;;;20.10;99.90;;;;;;5052571;28;20053;-77
2022/08/16 01:19:52;;;;;;;20.90;18.70;;;20.10;99.90;;;;;;5051993;28;20045;-77
2022/08/16 01:22:33;;;;;;;22.67;18.02;;;20.10;99.90;;;;;;5052118;28;20475;-77
2022/08/16 01:25:04;;;;;;;21.00;18.80;;;20.00;99.90;;;;;;5053320;28;20041;-77
2022/08/16 01:27:36;;;;;;;21.75;18.40;;;20.00;99.90;;;;;;5053273;28;20045;-77
2022/08/16 01:30:12;;;;;;;20.33;18.23;;;20.00;99.90;;;;;;5053631;28;20118;-77
2022/08/16 01:32:41;;;;;;;21.15;18.58;;;20.00;99.90;;;;;;5053466;28;20045;-77
2022/08/16 01:35:19;;;;;;;24.88;19.13;;;20.00;99.90;;;;;;5053384;28;20056;-77
2022/08/16 01:37:50;;;;;;;23.25;20.40;;;20.00;99.90;;;;;;5052750;28;20052;-77
2022/08/16 01:40:18;;;;;;;24.15;21.75;;;19.90;99.90;;;;;;5053423;28;20041;-77
2022/08/16 01:42:45;;;;;;;28.88;21.63;;;19.90;99.90;;;;;;5053328;28;20075;-78
2022/08/16 01:45:12;;;;;;;23.50;21.10;;;20.00;99.90;;;;;;5053297;28;20098;-78
2022/08/16 01:47:40;;;;;;;23.90;20.85;;;19.90;99.90;;;;;;5053349;28;20049;-78
2022/08/16 01:50:07;;;;;;;24.42;21.92;;;19.90;99.90;;;;;;5053294;28;20112;-78
2022/08/16 01:52:34;;;;;;;26.33;21.45;;;19.80;99.90;;;;;;5053251;28;20061;-77
2022/08/16 01:54:59;;;;;;;24.65;20.75;;;19.80;99.90;;;;;;5053270;28;20045;-77
2022/08/16 01:57:26;;;;;;;24.48;21.92;;;19.80;99.90;;;;;;5053240;28;20127;-77
2022/08/16 01:59:53;;;;;;;22.98;20.58;;;19.80;99.90;;;;;;5051796;28;20053;-77
2022/08/16 02:02:19;;;;;;;24.35;21.73;;;19.80;99.90;;;;;;5051923;28;20118;-77
2022/08/16 02:04:44;;;;;;;26.25;20.67;;;19.80;99.90;;;;;;5053148;28;20432;-77
2022/08/16 02:07:12;;;;;;;25.15;20.20;;;19.80;99.90;;;;;;5053025;28;20045;-77
2022/08/16 02:09:39;;;;;;;22.20;19.88;;;19.80;99.90;;;;;;5055778;28;20493;-77
2022/08/16 02:12:07;;;;;;;22.30;20.00;;;19.70;99.90;;;;;;5056870;28;20045;-76
2022/08/16 02:14:34;;;;;;;24.00;20.13;;;19.60;99.90;;;;;;5056497;28;20568;-76
2022/08/16 02:17:04;;;;;;;24.50;20.08;;;19.60;99.90;;;;;;5056742;28;20041;-76
2022/08/16 02:19:32;;;;;;;23.80;21.17;;;19.60;99.90;;;;;;5056698;28;20166;-76
2022/08/16 02:21:59;;;;;;;24.85;22.13;;;19.60;99.90;;;;;;5056720;28;20037;-76
2022/08/16 02:24:25;;;;;;;25.05;21.90;;;19.50;99.90;;;;;;5055333;28;20049;-76
2022/08/16 02:26:52;;;;;;;29.70;24.30;;;19.60;99.90;;;;;;5056223;28;20095;-76
2022/08/16 02:29:18;;;;;;;28.25;24.10;;;19.50;99.90;;;;;;5056468;28;20136;-76
2022/08/16 02:31:45;;;;;;;28.20;25.10;;;19.50;99.90;;;;;;5056310;28;20450;-76
2022/08/16 02:34:12;;;;;;;26.65;23.42;;;19.60;99.90;;;;;;5055066;28;20053;-76
2022/08/16 02:36:38;;;;;;;25.52;22.80;;;19.60;99.90;;;;;;5056447;28;20041;-76
2022/08/16 02:39:05;;;;;;;26.00;23.40;;;19.50;99.90;;;;;;5056248;28;20049;-79
2022/08/16 02:41:32;;;;;;;26.58;23.85;;;19.50;99.90;;;;;;5055065;28;20452;-76
2022/08/16 02:43:58;;;;;;;28.15;24.85;;;19.50;99.90;;;;;;5056019;28;20105;-76
2022/08/16 02:46:25;;;;;;;25.63;22.75;;;19.50;99.90;;;;;;5056251;28;20111;-76
2022/08/16 02:48:51;;;;;;;28.80;22.38;;;19.50;99.90;;;;;;5055958;28;20515;-76
2022/08/16 02:51:17;;;;;;;25.80;22.75;;;19.50;99.90;;;;;;5054810;28;20128;-76
2022/08/16 02:53:45;;;;;;;27.00;23.58;;;19.50;99.90;;;;;;5055947;28;20384;-76
2022/08/16 02:56:13;;;;;;;25.73;22.70;;;19.50;99.90;;;;;;5055004;28;20037;-76
2022/08/16 02:58:40;;;;;;;25.90;23.10;;;19.50;99.90;;;;;;5054478;28;20048;-76
2022/08/16 03:01:08;;;;;;;30.00;25.63;;;19.50;99.90;;;;;;5055895;28;20060;-76
2022/08/16 03:03:35;;;;;;;30.65;25.08;;;19.60;99.90;;;;;;5055203;28;20060;-77
2022/08/16 03:06:01;;;;;;;33.13;24.60;;;19.50;99.90;;;;;;5054764;28;20049;-76
2022/08/16 03:08:26;;;;;;;29.35;25.95;;;19.60;99.90;;;;;;5055812;28;20427;-76
2022/08/16 03:10:52;;;;;;;28.70;25.27;;;19.60;99.90;;;;;;5055719;28;20077;-76
2022/08/16 03:13:18;;;;;;;27.85;24.95;;;19.60;99.90;;;;;;5055690;28;20041;-76
2022/08/16 03:15:45;;;;;;;28.88;25.95;;;19.60;99.90;;;;;;5055739;28;20060;-76
2022/08/16 03:18:11;;;;;;;27.67;24.70;;;19.60;99.90;;;;;;5055523;28;20045;-76
2022/08/16 03:20:37;;;;;;;29.95;26.77;;;19.70;99.90;;;;;;5054261;28;20084;-76
2022/08/16 03:23:04;;;;;;;32.65;27.17;;;19.60;99.90;;;;;;5054558;28;20393;-77
2022/08/16 03:25:30;;;;;;;30.30;25.10;;;19.70;99.90;;;;;;5055153;28;20437;-76
2022/08/16 03:27:56;;;;;;;28.77;25.60;;;19.60;99.90;;;;;;5054002;28;20507;-76
2022/08/16 03:30:25;;;;;;;29.05;25.73;;;19.60;99.90;;;;;;5055251;28;20041;-77
2022/08/16 03:32:51;;;;;;;28.80;25.80;;;19.60;99.90;;;;;;5055374;28;20037;-77
2022/08/16 03:35:19;;;;;;;31.15;25.92;;;19.60;99.90;;;;;;5055291;28;20078;-76
2022/08/16 03:37:46;;;;;;;33.80;25.92;;;19.50;99.90;;;;;;5055117;28;20045;-76
2022/08/16 03:40:16;;;;;;;28.77;24.58;;;19.50;99.90;;;;;;5055128;28;20045;-76
2022/08/16 03:42:41;;;;;;;28.80;25.77;;;19.50;99.90;;;;;;5055115;28;20036;-76
2022/08/16 03:45:07;;;;;;;29.33;25.65;;;19.50;99.90;;;;;;5055095;28;20037;-76
2022/08/16 03:47:34;;;;;;;29.02;25.92;;;19.50;99.90;;;;;;5054878;28;20511;-76
2022/08/16 03:50:00;;;;;;;28.25;25.25;;;19.50;99.90;;;;;;5053697;28;20056;-76
2022/08/16 03:52:26;;;;;;;30.25;26.98;;;19.40;99.90;;;;;;5054900;28;20086;-76
2022/08/16 03:54:52;;;;;;;30.48;25.10;;;19.40;99.90;;;;;;5055137;28;20040;-76
2022/08/16 03:57:18;;;;;;;29.95;26.77;;;19.40;99.90;;;;;;5053444;28;20044;-77
2022/08/16 03:59:43;;;;;;;29.73;26.63;;;19.40;99.90;;;;;;5053432;28;20048;-77
2022/08/16 04:02:11;;;;;;;29.80;25.52;;;19.30;99.90;;;;;;5053452;28;20049;-76
2022/08/16 04:04:37;;;;;;;31.52;25.83;;;19.40;99.90;;;;;;5054737;28;20123;-76
2022/08/16 04:07:05;;;;;;;28.73;25.35;;;19.30;99.90;;;;;;5053373;28;20107;-76
2022/08/16 04:09:32;;;;;;;30.95;26.95;;;19.30;99.90;;;;;;5054390;28;20041;-76
2022/08/16 04:11:58;;;;;;;29.52;26.40;;;19.30;99.90;;;;;;5054380;28;20053;-76
2022/08/16 04:14:23;;;;;;;31.23;26.45;;;19.30;99.90;;;;;;5053881;28;20048;-77
2022/08/16 04:16:49;;;;;;;29.73;25.63;;;19.30;99.90;;;;;;5052034;28;20044;-77
2022/08/16 04:19:15;;;;;;;28.67;25.58;;;19.30;99.90;;;;;;5052186;28;20052;-78
2022/08/16 04:21:41;;;;;;;31.50;26.23;;;19.30;99.90;;;;;;5054018;28;20041;-77
2022/08/16 04:24:06;;;;;;;32.00;25.52;;;19.30;99.90;;;;;;5053073;28;20044;-78
2022/08/16 04:26:32;;;;;;;28.73;24.05;;;19.30;99.90;;;;;;5053878;28;20060;-77
2022/08/16 04:29:03;;;;;;;32.72;25.52;;;19.30;99.90;;;;;;5054215;28;20075;-77
2022/08/16 04:31:29;;;;;;;29.08;26.00;;;19.30;99.90;;;;;;5052550;28;20404;-78
2022/08/16 04:33:58;;;;;;;28.50;25.40;;;19.30;99.90;;;;;;5052643;28;20037;-77
2022/08/16 04:36:25;;;;;;;29.85;25.70;;;19.30;99.90;;;;;;5052900;28;20057;-77
2022/08/16 04:38:51;;;;;;;29.27;25.90;;;19.30;99.90;;;;;;5054013;28;20048;-77
2022/08/16 04:41:17;;;;;;;30.15;26.70;;;19.30;99.90;;;;;;5053776;28;20049;-77
2022/08/16 04:43:43;;;;;;;30.00;26.35;;;19.30;99.90;;;;;;5054031;28;20033;-77
2022/08/16 04:46:08;;;;;;;28.75;25.65;;;19.30;99.90;;;;;;5053968;28;20040;-77
2022/08/16 04:48:34;;;;;;;29.95;26.33;;;19.30;99.90;;;;;;5053885;28;20408;-78
2022/08/16 04:51:00;;;;;;;32.05;27.95;;;19.30;99.90;;;;;;5052382;28;20385;-77
2022/08/16 04:53:27;;;;;;;31.13;27.08;;;19.30;99.90;;;;;;5053799;28;20037;-77
2022/08/16 04:55:53;;;;;;;32.60;27.70;;;19.30;99.90;;;;;;5053802;28;20087;-77
2022/08/16 04:58:19;;;;;;;33.72;28.90;;;19.30;99.90;;;;;;5053759;28;20083;-77
2022/08/16 05:00:45;;;;;;;30.83;25.45;;;19.30;99.90;;;;;;5052249;28;20044;-77
2022/08/16 05:03:12;;;;;;;29.95;25.40;;;19.30;99.90;;;;;;5053646;28;20055;-76
2022/08/16 05:05:40;;;;;;;31.83;26.73;;;19.30;99.90;;;;;;5053665;28;20102;-76
2022/08/16 05:08:07;;;;;;;30.73;26.67;;;19.30;99.90;;;;;;5053656;28;20095;-77
2022/08/16 05:10:33;;;;;;;32.30;26.63;;;19.30;99.90;;;;;;5053417;28;20045;-76
2022/08/16 05:12:59;;;;;;;34.78;27.50;;;19.30;99.90;;;;;;5052084;28;20485;-77
2022/08/16 05:15:26;;;;;;;32.35;26.00;;;19.30;99.90;;;;;;5053290;28;20040;-77
2022/08/16 05:17:52;;;;;;;31.52;27.45;;;19.30;99.90;;;;;;5051990;28;20072;-77
2022/08/16 05:20:17;;;;;;;30.27;27.02;;;19.30;99.90;;;;;;5053422;28;20128;-77
2022/08/16 05:22:43;;;;;;;32.95;28.35;;;19.30;99.90;;;;;;5052332;28;20135;-76
2022/08/16 05:25:11;;;;;;;31.42;27.80;;;19.40;99.90;;;;;;5053374;28;20044;-76
2022/08/16 05:27:37;;;;;;;32.65;27.60;;;19.40;99.90;;;;;;5051925;28;20049;-76
2022/08/16 05:30:05;;;;;;;30.98;27.65;;;19.40;99.90;;;;;;5052306;28;20484;-76
2022/08/16 05:32:31;;;;;;;31.63;26.92;;;19.40;99.90;;;;;;5053284;28;20037;-77
2022/08/16 05:34:56;;;;;;;34.15;26.60;;;19.50;99.90;;;;;;5051965;28;20045;-76
2022/08/16 05:37:23;;;;;;;31.00;26.00;;;19.40;99.90;;;;;;5052127;28;20053;-76
2022/08/16 05:39:49;;;;;;;30.85;25.40;;;19.50;99.90;;;;;;5053097;28;20392;-76
2022/08/16 05:42:15;;;;;;;30.50;25.42;;;19.50;99.90;;;;;;5053183;28;20049;-76
2022/08/16 05:44:41;;;;;;;28.40;25.30;;;19.60;99.90;;;;;;5055169;28;20060;-76
2022/08/16 05:47:06;;;;;;;30.10;26.13;;;19.70;99.90;;;;;;5057230;28;20049;-76
2022/08/16 05:49:32;;;;;;;26.73;23.92;;;19.80;99.90;;;;;;5055721;28;20056;-76
2022/08/16 05:51:58;;;;;;;28.75;25.67;;;19.80;99.90;;;;;;5055711;28;20476;-76
2022/08/16 05:54:25;;;;;;;30.45;25.55;;;19.90;99.90;;;;;;5056079;28;20052;-76
2022/08/16 05:56:50;;;;;;;27.52;24.60;;;19.90;99.90;;;;;;5055674;28;20040;-76
2022/08/16 05:59:17;;;;;;;30.05;25.08;;;20.10;99.90;;;;;;5057039;28;20091;-76
2022/08/16 06:01:43;;;;;;;29.92;24.27;;;20.10;99.90;;;;;;5055530;28;20045;-77
2022/08/16 06:04:12;;;;;;;26.75;23.95;;;20.20;99.90;;;;;;5055467;28;20124;-76
2022/08/16 06:06:37;;;;;;;28.50;23.77;;;20.30;99.90;;;;;;5055715;28;20041;-76
2022/08/16 06:09:03;;;;;;;33.42;24.27;;;20.40;99.90;;;;;;5056673;28;20447;-76
2022/08/16 06:11:29;;;;;;;29.58;25.05;;;20.50;99.90;;;;;;5056661;28;20033;-76
2022/08/16 06:13:55;;;;;;;28.65;24.30;;;20.60;99.90;;;;;;5055332;28;20504;-77
2022/08/16 06:16:20;;;;;;;27.35;24.45;;;20.60;99.90;;;;;;5056406;28;20044;-76
2022/08/16 06:18:46;;;;;;;28.55;24.88;;;20.80;99.90;;;;;;5056697;28;20045;-77
2022/08/16 06:21:13;;;;;;;28.25;24.23;;;20.90;99.90;;;;;;5056298;28;20377;-77
2022/08/16 06:23:39;;;;;;;25.70;22.92;;;21.00;99.90;;;;;;5056543;28;20037;-77
2022/08/16 06:26:06;;;;;;;25.17;22.48;;;21.10;99.90;;;;;;5055300;28;20132;-76
2022/08/16 06:28:32;;;;;;;26.08;23.20;;;21.30;99.90;;;;;;5056531;28;20045;-76
2022/08/16 06:30:58;;;;;;;26.33;23.50;;;21.30;99.90;;;;;;5056171;28;20163;-76
2022/08/16 06:33:24;;;;;;;29.05;23.95;;;21.40;99.90;;;;;;5056480;28;20048;-76
2022/08/16 06:35:51;;;;;;;24.35;21.75;;;21.50;99.90;;;;;;5049416;28;20049;-75
2022/08/16 06:38:18;;;;;;;25.63;22.58;;;21.60;99.90;;;;;;5043665;28;20095;-75
2022/08/16 06:40:44;;;;;;;26.23;23.35;;;21.60;99.90;;;;;;5034634;28;20067;-75
2022/08/16 06:43:09;;;;;;;25.85;22.15;;;21.80;99.90;;;;;;5035957;28;20480;-74
2022/08/16 06:45:39;;;;;;;25.80;21.30;;;21.80;99.90;;;;;;5034582;28;20053;-74
2022/08/16 06:48:05;;;;;;;28.58;23.80;;;22.00;99.90;;;;;;5035866;28;20053;-74
2022/08/16 06:50:32;;;;;;;26.65;22.40;;;22.10;99.90;;;;;;5035820;28;20052;-74
2022/08/16 06:52:59;;;;;;;28.45;24.10;;;22.10;99.90;;;;;;5034442;28;20088;-74
2022/08/16 06:55:25;;;;;;;28.08;24.33;;;22.20;99.90;;;;;;5035638;28;20041;-74
2022/08/16 06:57:51;;;;;;;24.73;21.98;;;22.20;99.90;;;;;;5035670;28;20041;-74
2022/08/16 07:00:17;;;;;;;25.20;22.52;;;22.30;99.90;;;;;;5035437;28;20539;-74
2022/08/16 07:02:43;;;;;;;25.55;22.67;;;22.40;99.90;;;;;;5035479;28;20038;-74
2022/08/16 07:05:11;;;;;;;26.65;23.85;;;22.60;99.90;;;;;;5035748;28;20050;-75
2022/08/16 07:07:39;;;;;;;27.20;24.17;;;22.70;99.90;;;;;;5035508;28;20064;-74
2022/08/16 07:10:06;;;;;;;25.80;23.08;;;22.80;99.90;;;;;;5035391;28;20187;-74
2022/08/16 07:12:32;;;;;;;39.15;24.50;;;22.80;99.90;;;;;;5033931;28;20054;-75
2022/08/16 07:14:59;;;;;;;28.10;21.60;;;22.90;99.90;;;;;;5035318;28;20045;-74
2022/08/16 07:17:26;;;;;;;24.33;21.67;;;23.00;99.90;;;;;;5035178;28;20115;-75
2022/08/16 07:19:53;;;;;;;27.20;22.92;;;23.00;99.90;;;;;;5035884;28;20056;-74
2022/08/16 07:22:20;;;;;;;24.48;21.88;;;23.10;99.90;;;;;;5053677;28;20465;-75
2022/08/16 07:24:46;;;;;;;25.20;22.48;;;23.10;99.90;;;;;;5051563;28;20102;-76
2022/08/16 07:27:12;;;;;;;25.80;23.10;;;23.30;99.90;;;;;;5040004;28;20065;-75
2022/08/16 07:29:38;;;;;;;28.63;23.55;;;23.20;99.90;;;;;;5035074;28;20042;-75
2022/08/16 07:32:05;;;;;;;24.73;22.13;;;23.20;99.90;;;;;;5035341;28;20604;-75
2022/08/16 07:34:31;;;;;;;27.60;23.10;;;23.30;99.90;;;;;;5054845;28;20099;-74
2022/08/16 07:37:01;;;;;;;25.58;22.92;;;23.40;99.90;;;;;;5051484;28;20052;-74
2022/08/16 07:39:28;;;;;;;23.42;21.13;;;23.60;99.90;;;;;;5042862;28;20046;-75
2022/08/16 07:41:54;;;;;;;23.15;20.60;;;23.70;99.90;;;;;;5042846;28;20125;-75
2022/08/16 07:44:20;;;;;;;26.33;21.77;;;23.70;99.90;;;;;;5044673;28;20124;-75
2022/08/16 07:46:45;;;;;;;24.70;20.40;;;23.80;99.90;;;;;;5040100;28;20111;-75
2022/08/16 07:49:11;;;;;;;23.52;21.08;;;23.90;99.90;;;;;;5034752;28;20053;-75
2022/08/16 07:51:37;;;;;;;23.80;20.95;;;24.10;99.90;;;;;;5047603;28;20041;-76
2022/08/16 07:54:05;;;;;;;23.30;19.90;;;24.20;99.90;;;;;;5045024;28;20056;-75
2022/08/16 07:56:31;;;;;;;23.98;19.42;;;24.30;99.90;;;;;;5039772;28;20503;-74
2022/08/16 07:58:57;;;;;;;23.45;20.98;;;24.50;99.90;;;;;;5033263;28;20452;-76
2022/08/16 08:01:23;;;;;;;22.17;19.67;;;24.60;99.90;;;;;;5046615;28;20072;-76
2022/08/16 08:03:50;;;;;;;22.77;19.63;;;24.60;99.90;;;;;;5052814;28;20384;-75
2022/08/16 08:06:18;;;;;;;22.58;19.92;;;24.70;99.90;;;;;;5053464;28;20377;-76
2022/08/16 08:08:44;;;;;;;23.00;18.85;;;24.80;99.90;;;;;;5054100;28;20481;-75
2022/08/16 08:11:09;;;;;;;20.05;17.95;;;24.80;99.90;;;;;;5049728;28;20041;-75
2022/08/16 08:13:35;;;;;;;22.63;20.33;;;24.90;99.90;;;;;;5042307;28;20056;-76
2022/08/16 08:16:01;;;;;;;20.50;18.30;;;24.90;99.90;;;;;;5039410;28;20041;-75
2022/08/16 08:18:28;;;;;;;22.15;19.85;;;25.00;99.90;;;;;;5040922;28;20049;-75
2022/08/16 08:20:55;;;;;;;21.15;18.70;;;25.30;99.90;;;;;;5046927;28;20037;-75
2022/08/16 08:23:21;;;;;;;21.95;19.65;;;25.30;99.90;;;;;;5052564;28;20477;-76
2022/08/16 08:25:49;;;;;;;22.92;20.58;;;25.30;99.90;;;;;;5052411;28;20068;-76
2022/08/16 08:28:15;;;;;;;21.77;18.70;;;25.40;99.90;;;;;;5053754;28;20503;-75
2022/08/16 08:30:42;;;;;;;24.48;19.38;;;25.50;99.90;;;;;;5052803;28;20072;-76
2022/08/16 08:33:08;;;;;;;23.42;19.77;;;25.60;99.90;;;;;;5051861;28;20045;-76
2022/08/16 08:35:34;;;;;;;24.38;19.48;;;25.60;99.90;;;;;;5051751;28;20072;-76
2022/08/16 08:38:01;;;;;;;20.27;16.92;;;25.60;99.90;;;;;;5052067;28;20037;-76
2022/08/16 08:40:28;;;;;;;16.38;14.68;;;25.80;99.90;;;;;;5051958;28;20107;-76
2022/08/16 08:42:56;;;;;;;17.10;14.73;;;25.90;99.90;;;;;;5052613;28;20041;-76
2022/08/16 08:45:22;;;;;;;19.60;16.33;;;26.10;99.90;;;;;;5052886;28;20037;-77
2022/08/16 08:47:47;;;;;;;20.08;15.77;;;26.10;99.90;;;;;;5052577;28;20049;-77
2022/08/16 08:50:15;;;;;;;18.00;15.77;;;26.20;99.90;;;;;;5053782;28;20447;-77
2022/08/16 08:52:42;;;;;;;16.92;14.50;;;26.20;99.90;;;;;;5053640;28;20404;-77
2022/08/16 08:55:10;;;;;;;19.63;15.00;;;26.30;99.90;;;;;;5052616;28;20099;-76
2022/08/16 08:57:35;;;;;;;19.80;16.42;;;26.30;99.90;;;;;;5053502;28;20056;-77
2022/08/16 09:00:02;;;;;;;18.38;16.58;;;26.20;99.90;;;;;;5053733;28;20041;-77
2022/08/16 09:02:28;;;;;;;18.08;15.95;;;26.20;99.90;;;;;;5053611;28;20053;-76
2022/08/16 09:04:53;;;;;;;19.27;17.27;;;26.30;99.90;;;;;;5053517;28;20111;-77
2022/08/16 09:07:20;;;;;;;20.00;17.42;;;26.30;99.90;;;;;;5053436;28;20045;-77
2022/08/16 09:09:47;;;;;;;19.02;17.08;;;26.30;99.90;;;;;;5053702;28;20056;-77
2022/08/16 09:12:12;;;;;;;17.33;15.20;;;26.40;99.90;;;;;;5052084;28;20136;-77
2022/08/16 09:14:38;;;;;;;18.85;15.25;;;26.50;99.90;;;;;;5053305;28;20127;-77
2022/08/16 09:17:05;;;;;;;15.85;14.23;;;26.60;99.90;;;;;;5052169;28;20045;-77
2022/08/16 09:19:33;;;;;;;19.02;17.02;;;26.70;99.90;;;;;;5053190;28;20048;-78
2022/08/16 09:21:58;;;;;;;17.60;15.77;;;26.70;99.90;;;;;;5051995;28;20040;-77
2022/08/16 09:24:24;;;;;;;19.48;17.10;;;26.70;99.90;;;;;;5053513;28;20044;-77
2022/08/16 09:26:50;;;;;;;17.10;15.40;;;26.80;99.90;;;;;;5053292;28;20543;-77
2022/08/16 09:29:15;;;;;;;24.00;18.38;;;26.80;99.90;;;;;;5053475;28;20049;-77
2022/08/16 09:31:42;;;;;;;17.60;15.52;;;26.90;99.90;;;;;;5053226;28;20552;-77
2022/08/16 09:34:08;;;;;;;18.90;14.75;;;27.00;99.90;;;;;;5053084;28;20377;-77
2022/08/16 09:36:34;;;;;;;18.02;15.27;;;27.10;99.90;;;;;;5051845;28;20037;-76
2022/08/16 09:39:02;;;;;;;15.75;13.38;;;27.10;99.90;;;;;;5053125;28;20041;-76
2022/08/16 09:41:28;;;;;;;17.80;12.80;;;27.20;99.90;;;;;;5051689;28;20083;-76
2022/08/16 09:43:55;;;;;;;19.00;14.85;;;27.20;99.90;;;;;;5053058;28;20076;-76
2022/08/16 09:46:22;;;;;;;15.75;13.98;;;27.20;99.90;;;;;;5051141;28;20056;-76
2022/08/16 09:48:50;;;;;;;20.58;13.70;;;27.30;99.90;;;;;;5052842;28;20127;-76
2022/08/16 09:51:17;;;;;;;18.23;16.30;;;27.50;99.90;;;;;;5052285;28;20052;-76
2022/08/16 09:53:44;;;;;;;17.08;14.68;;;27.50;99.90;;;;;;5051045;28;20033;-76
2022/08/16 09:56:29;;;;;;;15.60;13.95;;;27.50;99.90;;;;;;5050823;28;20044;-76
2022/08/16 09:58:57;;;;;;;18.40;12.80;;;27.60;99.90;;;;;;5051016;28;20056;-76
2022/08/16 10:01:23;;;;;;;17.52;14.77;;;27.70;99.90;;;;;;5052499;28;20496;-76
2022/08/16 10:03:51;;;;;;;16.33;14.82;;;27.70;99.90;;;;;;5052752;28;20084;-77
2022/08/16 10:06:19;;;;;;;18.98;15.88;;;27.80;99.90;;;;;;5052785;28;20227;-76
2022/08/16 10:08:46;;;;;;;15.50;13.90;;;27.80;99.90;;;;;;5052739;28;20037;-76
2022/08/16 10:13:56;;;;;;;14.98;13.32;;;28.00;99.90;;;;;;5052145;28;20059;-76
2022/08/16 10:16:22;;;;;;;16.05;12.95;;;28.10;99.90;;;;;;5052607;28;20053;-77
2022/08/16 10:18:47;;;;;;;15.32;13.20;;;28.10;99.90;;;;;;5052814;28;20052;-77
2022/08/16 10:21:14;;;;;;;15.63;13.75;;;28.20;99.90;;;;;;5052952;28;20480;-83
2022/08/16 10:23:41;;;;;;;16.65;14.95;;;28.20;99.90;;;;;;5052865;28;20041;-78
2022/08/16 10:26:07;;;;;;;15.63;13.00;;;28.30;99.90;;;;;;5052480;28;20132;-78
2022/08/16 10:28:33;;;;;;;13.57;12.18;;;28.50;99.90;;;;;;5052659;28;20128;-77
2022/08/16 10:31:00;;;;;;;14.43;11.40;;;28.50;99.90;;;;;;5055728;28;20488;-77
2022/08/16 10:33:27;;;;;;;16.83;13.75;;;28.70;99.90;;;;;;5055154;28;20068;-75
2022/08/16 10:35:53;;;;;;;16.20;13.85;;;28.80;99.90;;;;;;5056106;28;20064;-80
2022/08/16 10:38:19;;;;;;;17.58;15.88;;;28.80;99.90;;;;;;5056064;28;20045;-81
2022/08/16 10:40:45;;;;;;;16.35;14.38;;;28.70;99.90;;;;;;5054655;28;20086;-86
2022/08/16 10:43:11;;;;;;;15.85;13.00;;;28.80;99.90;;;;;;5056074;28;20122;-81
2022/08/16 10:45:39;;;;;;;16.42;14.73;;;28.80;99.90;;;;;;5055861;28;20488;-84
2022/08/16 10:48:08;;;;;;;13.77;12.23;;;28.90;99.90;;;;;;5056112;28;20439;-82
2022/08/16 10:50:35;;;;;;;15.02;12.77;;;28.90;99.90;;;;;;5056121;28;20045;-88
2022/08/16 10:53:05;;;;;;;18.17;11.55;;;29.00;99.90;;;;;;5055928;28;20083;-87
2022/08/16 10:55:38;;;;;;;13.65;11.25;;;29.10;99.90;;;;;;5054904;28;20103;-93
2022/08/16 10:58:06;;;;;;;12.90;11.55;;;29.10;99.90;;;;;;5054432;28;20041;-79
2022/08/16 11:00:33;;;;;;;16.75;14.32;;;29.20;99.90;;;;;;5055560;28;20053;-80
2022/08/16 11:03:05;;;;;;;16.20;14.50;;;29.30;99.90;;;;;;5055780;28;20033;-80
2022/08/16 11:05:33;;;;;;;13.52;12.13;;;29.40;99.90;;;;;;5055679;28;20041;-81
2022/08/16 11:07:59;;;;;;;16.45;13.48;;;29.50;99.90;;;;;;5055533;28;20067;-79
2022/08/16 11:10:28;;;;;;;17.05;13.32;;;29.50;99.90;;;;;;5055710;28;20047;-80
2022/08/16 11:12:54;;;;;;;14.88;13.35;;;29.70;99.90;;;;;;5054223;28;20049;-79
2022/08/16 11:15:20;;;;;;;19.80;14.00;;;29.80;99.90;;;;;;5055355;28;20102;-80
2022/08/16 11:17:47;;;;;;;15.52;13.90;;;29.80;99.90;;;;;;5054369;28;20056;-80
2022/08/16 11:20:16;;;;;;;16.80;13.05;;;29.60;99.90;;;;;;5053997;28;20443;-79
2022/08/16 11:22:45;;;;;;;16.27;14.52;;;29.70;99.90;;;;;;5054363;28;20041;-80
2022/08/16 11:25:12;;;;;;;15.10;11.82;;;29.50;99.90;;;;;;5054307;28;20057;-79
2022/08/16 11:27:38;;;;;;;20.45;14.70;;;29.30;99.90;;;;;;5055065;28;20053;-80
2022/08/16 11:30:07;;;;;;;17.67;14.43;;;29.00;99.90;;;;;;5055393;28;20045;-81
2022/08/16 11:32:34;;;;;;;17.05;13.50;;;28.60;99.90;;;;;;5055081;28;20052;-81
2022/08/16 11:35:04;;;;;;;18.30;14.02;;;28.40;99.90;;;;;;5055267;28;20080;-80
2022/08/16 11:37:32;;;;;;;17.70;13.38;;;28.30;99.90;;;;;;5055298;28;20083;-81
2022/08/16 11:39:57;;;;;;;17.23;14.35;;;28.20;99.90;;;;;;5054932;28;20053;-80
2022/08/16 11:42:23;;;;;;;18.33;15.07;;;28.30;99.90;;;;;;5052534;28;20051;-81
2022/08/16 11:44:48;;;;;;;19.42;14.27;;;28.30;99.90;;;;;;5053675;28;20120;-80
2022/08/16 11:47:14;;;;;;;23.48;14.93;;;28.40;99.90;;;;;;5054890;28;20163;-80
2022/08/16 11:49:40;;;;;;;18.48;14.35;;;28.10;99.90;;;;;;5054693;28;20179;-79
2022/08/16 11:52:06;;;;;;;19.40;13.00;;;28.20;99.90;;;;;;5055051;28;20091;-80
2022/08/16 11:54:32;;;;;;;16.27;14.23;;;28.30;99.90;;;;;;5055049;28;20221;-79
2022/08/16 11:56:59;;;;;;;15.55;13.55;;;28.20;99.90;;;;;;5053794;28;20063;-80
2022/08/16 11:59:28;;;;;;;18.88;15.18;;;28.30;99.90;;;;;;5053237;28;20055;-80
2022/08/16 12:01:57;;;;;;;18.90;14.88;;;28.20;99.90;;;;;;5054590;28;20037;-80
2022/08/16 12:04:24;;;;;;;15.88;11.93;;;28.10;99.90;;;;;;5054497;28;20055;-82
2022/08/16 12:06:51;;;;;;;14.00;11.82;;;28.20;99.90;;;;;;5053220;28;20084;-82
2022/08/16 12:09:16;;;;;;;14.68;12.50;;;28.30;99.90;;;;;;5054947;28;20045;-85
2022/08/16 12:11:43;;;;;;;15.95;12.80;;;28.40;99.90;;;;;;5054472;28;20056;-82
2022/08/16 12:14:09;;;;;;;20.73;15.25;;;28.30;99.90;;;;;;5054507;28;20047;-82
2022/08/16 12:16:35;;;;;;;15.13;12.02;;;28.20;99.90;;;;;;5054325;28;20123;-81
2022/08/16 12:19:06;;;;;;;19.80;14.50;;;28.10;99.90;;;;;;5054098;28;20076;-82
2022/08/16 12:21:33;;;;;;;15.55;12.48;;;27.90;99.90;;;;;;5054289;28;20144;-82
2022/08/16 12:23:59;;;;;;;15.75;13.43;;;28.00;99.90;;;;;;5054397;28;20038;-81
2022/08/16 12:26:25;;;;;;;15.20;13.55;;;27.70;99.90;;;;;;5052634;28;20455;-81
2022/08/16 12:28:52;;;;;;;15.50;14.00;;;27.60;99.90;;;;;;5054194;28;20489;-80